createdAt,value
2022-07-29T00:02:13.856Z,100586.45
2022-07-29T00:06:16.518Z,100581.98
2022-07-29T00:10:18.815Z,100581.04
2022-07-29T00:14:21.112Z,100584.80
2022-07-29T00:18:23.216Z,100588.09
2022-07-29T00:22:25.327Z,100586.48
2022-07-29T00:26:32.121Z,100583.21
2022-07-29T00:30:34.285Z,100581.41
2022-07-29T00:34:54.952Z,100577.67
2022-07-29T00:38:57.040Z,100575.39
2022-07-29T00:42:59.229Z,100572.14
2022-07-29T00:47:01.641Z,100575.52
2022-07-29T00:51:05.145Z,100584.75
2022-07-29T00:55:10.236Z,100581.88
2022-07-29T00:59:12.303Z,100575.03
2022-07-29T01:03:14.396Z,100576.14
2022-07-29T01:07:17.962Z,100572.86
2022-07-29T01:11:20.807Z,100575.91
2022-07-29T01:15:23.557Z,100580.23
2022-07-29T01:19:35.204Z,100581.54
2022-07-29T01:23:37.184Z,100579.82
2022-07-29T01:27:47.951Z,100577.52
2022-07-29T01:32:02.662Z,100576.92
2022-07-29T01:36:11.448Z,100580.34
2022-07-29T01:40:32.221Z,100569.13
2022-07-29T01:44:40.560Z,100576.48
2022-07-29T01:49:01.159Z,100572.21
2022-07-29T01:53:07.542Z,100569.55
2022-07-29T01:57:14.228Z,100569.07
2022-07-29T02:01:17.132Z,100576.07
2022-07-29T02:05:22.737Z,100582.85
2022-07-29T02:09:27.373Z,100587.92
2022-07-29T02:13:31.023Z,100592.73
2022-07-29T02:17:46.581Z,100596.16
2022-07-29T02:21:51.341Z,100587.84
2022-07-29T02:25:56.634Z,100588.05
2022-07-29T02:30:01.300Z,100595.13
2022-07-29T02:34:07.702Z,100587.39
2022-07-29T02:38:34.348Z,100589.50
2022-07-29T02:42:38.062Z,100591.75
2022-07-29T02:46:51.692Z,100595.61
2022-07-29T02:51:05.276Z,100598.91
2022-07-29T02:55:38.514Z,100591.25
2022-07-29T02:59:43.626Z,100592.58
2022-07-29T03:03:47.001Z,100596.92
2022-07-29T03:08:03.462Z,100599.05
2022-07-29T03:12:06.646Z,100604.88
2022-07-29T03:16:10.159Z,100611.21
2022-07-29T03:20:13.480Z,100607.52
2022-07-29T03:24:29.559Z,100610.34
2022-07-29T03:28:31.812Z,100611.31
2022-07-29T03:32:34.289Z,100618.88
2022-07-29T03:36:36.426Z,100620.45
2022-07-29T03:40:52.229Z,100621.92
2022-07-29T03:44:55.972Z,100619.19
2022-07-29T03:49:02.051Z,100621.20
2022-07-29T03:53:04.768Z,100615.29
2022-07-29T03:57:10.637Z,100611.70
2022-07-29T04:01:13.558Z,100610.09
2022-07-29T04:05:16.928Z,100607.91
2022-07-29T04:09:19.121Z,100612.91
2022-07-29T04:13:21.542Z,100614.13
2022-07-29T04:17:23.657Z,100613.33
2022-07-29T04:21:26.358Z,100609.31
2022-07-29T04:25:28.521Z,100606.73
2022-07-29T04:29:30.646Z,100606.32
2022-07-29T04:33:32.760Z,100603.98
2022-07-29T04:37:34.810Z,100602.36
2022-07-29T04:41:37.623Z,100602.01
2022-07-29T04:45:40.133Z,100609.19
2022-07-29T04:49:42.253Z,100613.95
2022-07-29T04:53:44.453Z,100611.88
2022-07-29T04:57:46.718Z,100613.23
2022-07-29T05:01:48.975Z,100617.78
2022-07-29T05:05:51.290Z,100620.07
2022-07-29T05:09:53.763Z,100619.59
2022-07-29T05:13:55.830Z,100621.43
2022-07-29T05:17:57.970Z,100622.93
2022-07-29T05:22:00.612Z,100624.31
2022-07-29T05:26:02.729Z,100623.79
2022-07-29T05:30:05.309Z,100630.64
2022-07-29T05:34:07.461Z,100633.58
2022-07-29T05:38:09.581Z,100626.76
2022-07-29T05:42:11.781Z,100623.52
2022-07-29T05:46:14.686Z,100623.91
2022-07-29T05:50:17.295Z,100626.73
2022-07-29T05:54:19.444Z,100623.82
2022-07-29T05:58:21.782Z,100617.63
2022-07-29T06:02:23.910Z,100619.39
2022-07-29T06:06:26.022Z,100612.73
2022-07-29T06:10:28.220Z,100608.21
2022-07-29T06:14:30.593Z,100604.02
2022-07-29T06:18:32.662Z,100598.26
2022-07-29T06:22:34.758Z,100601.73
2022-07-29T06:26:39.737Z,100599.52
2022-07-29T06:30:42.170Z,100598.50
2022-07-29T06:34:44.245Z,100596.85
2022-07-29T06:38:52.106Z,100600.65
2022-07-29T06:42:54.537Z,100597.80
2022-07-29T06:46:56.920Z,100596.92
2022-07-29T06:50:59.485Z,100599.02
2022-07-29T06:55:01.576Z,100596.51
2022-07-29T06:59:04.997Z,100596.91
2022-07-29T07:03:07.268Z,100600.42
2022-07-29T07:07:09.353Z,100603.23
2022-07-29T07:11:11.894Z,100602.25
2022-07-29T07:15:13.980Z,100605.92
2022-07-29T07:19:16.058Z,100604.29
2022-07-29T07:23:18.184Z,100604.95
2022-07-29T07:27:20.351Z,100608.41
2022-07-29T07:31:22.980Z,100608.45
2022-07-29T07:35:25.135Z,100616.83
2022-07-29T07:39:27.237Z,100612.29
2022-07-29T07:43:29.268Z,100607.58
2022-07-29T07:47:31.387Z,100609.59
2022-07-29T07:51:36.264Z,100608.75
2022-07-29T07:56:13.066Z,100615.30
2022-07-29T08:00:05.801Z,100618.64
2022-07-29T08:04:14.355Z,100617.37
2022-07-29T08:08:16.700Z,100614.77
2022-07-29T08:12:20.362Z,100612.67
2022-07-29T08:16:22.986Z,100616.17
2022-07-29T08:20:25.479Z,100614.66
2022-07-29T08:24:46.158Z,100613.44
2022-07-29T08:28:50.939Z,100612.91
2022-07-29T08:32:55.231Z,100611.11
2022-07-29T08:36:58.228Z,100608.97
2022-07-29T08:41:03.321Z,100613.67
2022-07-29T08:45:06.022Z,100613.15
2022-07-29T08:49:08.218Z,100612.95
2022-07-29T08:53:15.807Z,100610.89
2022-07-29T08:57:19.109Z,100612.59
2022-07-29T09:01:36.352Z,100604.77
2022-07-29T09:05:48.246Z,100602.20
2022-07-29T09:09:50.796Z,100601.48
2022-07-29T09:13:53.072Z,100598.97
2022-07-29T09:17:57.130Z,100595.42
2022-07-29T09:22:03.143Z,100596.99
2022-07-29T09:26:07.092Z,100587.93
2022-07-29T09:30:14.988Z,100590.69
2022-07-29T09:34:31.101Z,100589.41
2022-07-29T09:38:34.357Z,100588.41
2022-07-29T09:42:36.694Z,100583.23
2022-07-29T09:46:38.874Z,100578.47
2022-07-29T09:50:42.207Z,100583.22
2022-07-29T09:54:45.507Z,100578.10
2022-07-29T09:58:47.745Z,100572.22
2022-07-29T10:02:50.018Z,100565.94
2022-07-29T10:07:04.495Z,100568.55
2022-07-29T10:11:17.331Z,100566.63
2022-07-29T10:15:19.696Z,100561.52
2022-07-29T10:19:22.013Z,100563.04
2022-07-29T10:23:24.822Z,100551.83
2022-07-29T10:27:27.087Z,100549.27
2022-07-29T10:31:58.952Z,100549.39
2022-07-29T10:36:33.362Z,100548.32
2022-07-29T10:41:23.735Z,100534.27
2022-07-29T10:45:26.008Z,100532.98
2022-07-29T10:49:30.737Z,100527.95
2022-07-29T10:53:54.154Z,100525.73
2022-07-29T10:58:12.708Z,100532.96
2022-07-29T11:02:42.150Z,100531.17
2022-07-29T11:07:11.159Z,100516.73
2022-07-29T11:11:19.901Z,100521.11
2022-07-29T11:15:24.951Z,100519.42
2022-07-29T11:19:30.735Z,100514.46
2022-07-29T11:23:37.533Z,100518.66
2022-07-29T11:27:40.143Z,100510.96
2022-07-29T11:31:48.900Z,100516.31
2022-07-29T11:36:16.760Z,100515.58
2022-07-29T11:40:19.997Z,100521.66
2022-07-29T11:45:40.356Z,100518.27
2022-07-29T11:49:32.014Z,100519.42
2022-07-29T11:53:36.419Z,100510.27
2022-07-29T11:57:46.207Z,100506.33
2022-07-29T12:02:36.786Z,100503.73
2022-07-29T12:06:28.776Z,100499.02
2022-07-29T12:10:32.890Z,100491.11
2022-07-29T12:14:35.954Z,100491.52
2022-07-29T12:18:38.275Z,100488.66
2022-07-29T12:22:42.506Z,100488.08
2022-07-29T12:26:56.247Z,100483.56
2022-07-29T12:30:59.194Z,100491.02
2022-07-29T12:35:08.462Z,100484.42
2022-07-29T12:39:12.061Z,100483.37
2022-07-29T12:43:25.335Z,100478.82
2022-07-29T12:47:28.306Z,100476.20
2022-07-29T12:51:33.647Z,100467.39
2022-07-29T12:55:44.940Z,100463.22
2022-07-29T13:00:02.251Z,100466.25
2022-07-29T13:04:05.091Z,100464.95
2022-07-29T13:08:22.750Z,100466.23
2022-07-29T13:12:25.359Z,100457.23
2022-07-29T13:16:28.352Z,100452.15
2022-07-29T13:20:31.162Z,100449.53
2022-07-29T13:24:34.080Z,100450.02
2022-07-29T13:28:36.593Z,100452.35
2022-07-29T13:32:38.997Z,100452.05
2022-07-29T13:36:41.742Z,100445.52
2022-07-29T13:40:46.585Z,100442.17
2022-07-29T13:44:54.391Z,100434.19
2022-07-29T13:48:56.703Z,100434.29
2022-07-29T13:52:59.931Z,100434.65
2022-07-29T13:57:02.233Z,100434.38
2022-07-29T14:01:04.727Z,100436.59
2022-07-29T14:05:08.810Z,100429.35
2022-07-29T14:09:11.287Z,100430.27
2022-07-29T14:13:24.512Z,100417.38
2022-07-29T14:17:27.850Z,100409.91
2022-07-29T14:21:31.250Z,100409.96
2022-07-29T14:25:35.942Z,100411.11
2022-07-29T14:29:41.842Z,100401.39
2022-07-29T14:33:46.284Z,100402.98
2022-07-29T14:37:51.711Z,100407.34
2022-07-29T14:41:54.082Z,100398.77
2022-07-29T14:46:01.984Z,100398.44
2022-07-29T14:50:07.768Z,100397.65
2022-07-29T14:54:10.062Z,100391.21
2022-07-29T14:58:16.393Z,100391.74
2022-07-29T15:02:19.057Z,100382.37
2022-07-29T15:06:21.408Z,100381.58
2022-07-29T15:10:24.684Z,100374.90
2022-07-29T15:14:27.988Z,100373.27
2022-07-29T15:18:30.645Z,100368.81
2022-07-29T15:22:34.955Z,100370.57
2022-07-29T15:26:37.253Z,100363.96
2022-07-29T15:30:42.540Z,100359.03
2022-07-29T15:34:44.727Z,100358.32
2022-07-29T15:38:46.923Z,100352.23
2022-07-29T15:42:49.169Z,100342.83
2022-07-29T15:47:03.438Z,100342.44
2022-07-29T15:51:05.985Z,100339.76
2022-07-29T15:55:09.345Z,100330.94
2022-07-29T15:59:11.603Z,100331.46
2022-07-29T16:03:25.004Z,100327.08
2022-07-29T16:07:31.395Z,100321.35
2022-07-29T16:11:35.741Z,100327.66
2022-07-29T16:15:37.930Z,100324.40
2022-07-29T16:19:40.250Z,100322.10
2022-07-29T16:23:46.181Z,100314.12
2022-07-29T16:27:55.942Z,100318.45
2022-07-29T16:32:02.548Z,100317.74
2022-07-29T16:36:05.641Z,100321.86
2022-07-29T16:40:16.285Z,100326.66
2022-07-29T16:44:18.456Z,100335.84
2022-07-29T16:48:20.643Z,100339.04
2022-07-29T16:52:22.839Z,100342.27
2022-07-29T16:56:24.965Z,100337.13
2022-07-29T17:00:31.807Z,100337.39
2022-07-29T17:04:37.285Z,100338.53
2022-07-29T17:08:40.978Z,100338.63
2022-07-29T17:12:43.698Z,100341.91
2022-07-29T17:16:51.683Z,100332.44
2022-07-29T17:21:03.304Z,100324.95
2022-07-29T17:25:07.030Z,100337.52
2022-07-29T17:29:11.688Z,100335.21
2022-07-29T17:33:13.831Z,100337.14
2022-07-29T17:37:16.080Z,100343.04
2022-07-29T17:41:18.523Z,100344.27
2022-07-29T17:45:20.877Z,100349.54
2022-07-29T17:49:27.758Z,100346.80
2022-07-29T17:53:30.284Z,100348.60
2022-07-29T17:57:41.961Z,100346.86
2022-07-29T18:01:44.166Z,100343.98
2022-07-29T18:05:46.844Z,100354.57
2022-07-29T18:09:49.005Z,100354.90
2022-07-29T18:13:51.788Z,100356.79
2022-07-29T18:17:57.362Z,100353.76
2022-07-29T18:22:05.440Z,100357.29
2022-07-29T18:26:09.077Z,100349.02
2022-07-29T18:30:11.256Z,100346.30
2022-07-29T18:34:13.350Z,100349.27
2022-07-29T18:38:15.557Z,100352.36
2022-07-29T18:42:17.837Z,100350.38
2022-07-29T18:46:20.008Z,100352.90
2022-07-29T18:50:29.378Z,100360.09
2022-07-29T18:54:31.894Z,100363.34
2022-07-29T18:58:34.007Z,100362.40
2022-07-29T19:02:37.762Z,100360.48
2022-07-29T19:06:41.241Z,100360.98
2022-07-29T19:10:43.740Z,100358.46
2022-07-29T19:14:45.970Z,100362.23
2022-07-29T19:18:48.142Z,100367.59
2022-07-29T19:22:50.544Z,100375.08
2022-07-29T19:26:52.754Z,100369.59
2022-07-29T19:30:54.971Z,100370.45
2022-07-29T19:35:15.568Z,100374.35
2022-07-29T19:39:17.697Z,100375.84
2022-07-29T19:43:50.479Z,100376.73
2022-07-29T19:48:00.653Z,100379.66
2022-07-29T19:52:03.606Z,100375.77
2022-07-29T19:56:05.912Z,100374.89
2022-07-29T20:00:12.374Z,100374.60
2022-07-29T20:04:14.713Z,100379.67
2022-07-29T20:08:17.788Z,100378.65
2022-07-29T20:12:21.559Z,100378.75
2022-07-29T20:16:23.711Z,100375.95
2022-07-29T20:20:29.475Z,100371.44
2022-07-29T20:24:31.617Z,100368.15
2022-07-29T20:28:33.911Z,100369.09
2022-07-29T20:32:36.031Z,100363.41
2022-07-29T20:36:38.151Z,100363.13
2022-07-29T20:40:40.310Z,100362.93
2022-07-29T20:44:42.589Z,100357.45
2022-07-29T20:48:45.380Z,100356.01
2022-07-29T20:52:47.642Z,100353.21
2022-07-29T20:56:49.862Z,100349.59
2022-07-29T21:00:52.138Z,100342.99
2022-07-29T21:04:54.403Z,100337.64
2022-07-29T21:08:57.953Z,100334.25
2022-07-29T21:13:00.677Z,100335.86
2022-07-29T21:17:05.827Z,100334.05
2022-07-29T21:21:08.051Z,100333.73
2022-07-29T21:25:11.242Z,100326.78
2022-07-29T21:29:13.392Z,100318.02
2022-07-29T21:33:15.589Z,100322.46
2022-07-29T21:37:17.960Z,100316.73
2022-07-29T21:41:21.488Z,100315.23
2022-07-29T21:45:23.705Z,100316.27
2022-07-29T21:49:25.823Z,100317.60
2022-07-29T21:53:28.215Z,100325.73
2022-07-29T21:57:30.344Z,100320.91
2022-07-29T22:01:39.044Z,100327.88
2022-07-29T22:05:41.787Z,100321.61
2022-07-29T22:09:44.206Z,100322.54
2022-07-29T22:13:46.425Z,100323.65
2022-07-29T22:17:48.755Z,100331.84
2022-07-29T22:21:50.883Z,100332.81
2022-07-29T22:25:54.111Z,100324.52
2022-07-29T22:29:56.250Z,100317.06
2022-07-29T22:33:58.399Z,100315.13
2022-07-29T22:38:00.448Z,100313.88
2022-07-29T22:42:02.542Z,100308.56
2022-07-29T22:46:05.084Z,100302.86
2022-07-29T22:50:07.599Z,100305.16
2022-07-29T22:54:09.686Z,100300.61
2022-07-29T22:58:12.090Z,100303.13
2022-07-29T23:02:14.213Z,100300.61
2022-07-29T23:06:16.622Z,100293.27
2022-07-29T23:10:18.779Z,100288.86
2022-07-29T23:14:20.902Z,100282.42
2022-07-29T23:18:23.063Z,100287.83
2022-07-29T23:22:25.155Z,100290.00
2022-07-29T23:26:27.752Z,100284.16
2022-07-29T23:30:30.489Z,100289.38
2022-07-29T23:34:32.630Z,100292.44
2022-07-29T23:38:34.850Z,100292.96
2022-07-29T23:42:37.927Z,100294.23
2022-07-29T23:46:40.227Z,100294.53
2022-07-29T23:50:42.427Z,100302.73
2022-07-29T23:54:44.583Z,100299.23
2022-07-29T23:58:46.646Z,100303.98
